Terminal Aerodrome Forecast
Issued by NWS

Home | Current Version | Previous Version | Text Only | Print | Product List | Glossary On
Versions: 1 2 3 4 5 6 7 8 9 10 11 12 13 14 15
000
FTUS45 KABQ 281700
TAFLVS
TAF
KLVS 281739Z 2818/2918 15010KT P6SM BKN040
     FM282100 19011G18KT P6SM VCTS BKN060CB OVC120
      TEMPO 2822/2901 VRB15G25KT 3SM -TSRA BKN030CB
     FM290300 14010KT P6SM -RA BKN050
     FM290900 17008KT P6SM BKN015
     FM291600 20011KT P6SM SCT035 BKN100=

USA.gov is the U.S. government's official web portal to all federal, state and local government web resources and services.